sensor_id;sensor_type;location;lat;lon;timestamp;temperature;humidity
74155;DHT22;62509;46.248;6.018;2023-11-19T00:04:04;7.20;99.90
74155;DHT22;62509;46.248;6.018;2023-11-19T00:09:08;7.10;99.90
74155;DHT22;62509;46.248;6.018;2023-11-19T00:14:11;7.30;99.90
74155;DHT22;62509;46.248;6.018;2023-11-19T00:19:16;7.30;99.90
74155;DHT22;62509;46.248;6.018;2023-11-19T00:24:19;7.30;99.90
74155;DHT22;62509;46.248;6.018;2023-11-19T00:29:23;7.30;99.90
74155;DHT22;62509;46.248;6.018;2023-11-19T00:34:27;7.20;99.90
74155;DHT22;62509;46.248;6.018;2023-11-19T00:39:31;7.60;99.90
74155;DHT22;62509;46.248;6.018;2023-11-19T00:44:34;7.70;99.90
74155;DHT22;62509;46.248;6.018;2023-11-19T00:49:38;8.50;99.90
74155;DHT22;62509;46.248;6.018;2023-11-19T00:54:42;8.80;99.90
74155;DHT22;62509;46.248;6.018;2023-11-19T00:59:45;8.90;99.80
74155;DHT22;62509;46.248;6.018;2023-11-19T01:04:50;9.00;97.80
74155;DHT22;62509;46.248;6.018;2023-11-19T01:09:54;8.90;98.50
74155;DHT22;62509;46.248;6.018;2023-11-19T01:14:57;8.90;99.40
74155;DHT22;62509;46.248;6.018;2023-11-19T01:20:01;8.90;99.80
74155;DHT22;62509;46.248;6.018;2023-11-19T01:25:07;8.80;99.90
74155;DHT22;62509;46.248;6.018;2023-11-19T01:30:11;8.90;98.40
74155;DHT22;62509;46.248;6.018;2023-11-19T01:35:16;9.20;97.40
74155;DHT22;62509;46.248;6.018;2023-11-19T01:40:20;9.40;96.10
74155;DHT22;62509;46.248;6.018;2023-11-19T01:45:27;9.40;95.60
74155;DHT22;62509;46.248;6.018;2023-11-19T01:50:33;9.30;96.10
74155;DHT22;62509;46.248;6.018;2023-11-19T01:55:37;9.20;96.70
74155;DHT22;62509;46.248;6.018;2023-11-19T02:00:40;9.20;96.80
74155;DHT22;62509;46.248;6.018;2023-11-19T02:05:46;9.20;97.10
74155;DHT22;62509;46.248;6.018;2023-11-19T02:10:52;9.20;97.20
74155;DHT22;62509;46.248;6.018;2023-11-19T02:15:56;9.10;99.10
74155;DHT22;62509;46.248;6.018;2023-11-19T02:21:02;9.00;99.90
74155;DHT22;62509;46.248;6.018;2023-11-19T02:26:10;8.90;99.90
74155;DHT22;62509;46.248;6.018;2023-11-19T02:31:18;9.00;99.90
74155;DHT22;62509;46.248;6.018;2023-11-19T02:36:21;9.30;99.90
74155;DHT22;62509;46.248;6.018;2023-11-19T02:41:25;9.50;99.90
74155;DHT22;62509;46.248;6.018;2023-11-19T02:46:29;9.60;99.90
74155;DHT22;62509;46.248;6.018;2023-11-19T02:51:33;9.50;99.90
74155;DHT22;62509;46.248;6.018;2023-11-19T02:56:37;9.50;99.90
74155;DHT22;62509;46.248;6.018;2023-11-19T03:01:42;9.50;99.90
74155;DHT22;62509;46.248;6.018;2023-11-19T03:06:51;9.50;99.90
74155;DHT22;62509;46.248;6.018;2023-11-19T03:11:55;9.60;99.90
74155;DHT22;62509;46.248;6.018;2023-11-19T03:16:59;9.70;99.90
74155;DHT22;62509;46.248;6.018;2023-11-19T03:22:03;9.90;99.90
74155;DHT22;62509;46.248;6.018;2023-11-19T03:27:06;10.00;99.90
74155;DHT22;62509;46.248;6.018;2023-11-19T03:32:11;10.00;99.90
74155;DHT22;62509;46.248;6.018;2023-11-19T03:37:14;10.10;99.90
74155;DHT22;62509;46.248;6.018;2023-11-19T03:42:19;10.20;99.90
74155;DHT22;62509;46.248;6.018;2023-11-19T03:47:23;10.20;99.90
74155;DHT22;62509;46.248;6.018;2023-11-19T03:52:26;10.30;99.90
74155;DHT22;62509;46.248;6.018;2023-11-19T03:57:30;10.30;99.90
74155;DHT22;62509;46.248;6.018;2023-11-19T04:02:34;10.30;99.90
74155;DHT22;62509;46.248;6.018;2023-11-19T04:07:37;10.30;99.90
74155;DHT22;62509;46.248;6.018;2023-11-19T04:12:40;10.30;99.90
74155;DHT22;62509;46.248;6.018;2023-11-19T04:17:45;10.40;99.90
74155;DHT22;62509;46.248;6.018;2023-11-19T04:22:49;10.50;99.90
74155;DHT22;62509;46.248;6.018;2023-11-19T04:27:52;10.40;99.90
74155;DHT22;62509;46.248;6.018;2023-11-19T04:32:57;10.40;99.90
74155;DHT22;62509;46.248;6.018;2023-11-19T04:38:00;10.40;99.90
74155;DHT22;62509;46.248;6.018;2023-11-19T04:43:03;10.30;99.90
74155;DHT22;62509;46.248;6.018;2023-11-19T04:48:08;10.30;99.90
74155;DHT22;62509;46.248;6.018;2023-11-19T04:53:11;10.30;99.90
74155;DHT22;62509;46.248;6.018;2023-11-19T04:58:17;10.30;99.90
74155;DHT22;62509;46.248;6.018;2023-11-19T05:03:22;10.20;99.90
74155;DHT22;62509;46.248;6.018;2023-11-19T05:08:25;10.20;99.90
74155;DHT22;62509;46.248;6.018;2023-11-19T05:13:28;10.00;99.90
74155;DHT22;62509;46.248;6.018;2023-11-19T05:18:33;10.00;99.90
74155;DHT22;62509;46.248;6.018;2023-11-19T05:23:36;10.10;99.90
74155;DHT22;62509;46.248;6.018;2023-11-19T05:28:39;10.10;99.90
74155;DHT22;62509;46.248;6.018;2023-11-19T05:33:44;10.30;99.90
74155;DHT22;62509;46.248;6.018;2023-11-19T05:38:47;10.40;99.90
74155;DHT22;62509;46.248;6.018;2023-11-19T05:43:50;10.60;99.90
74155;DHT22;62509;46.248;6.018;2023-11-19T05:48:55;10.80;99.90
74155;DHT22;62509;46.248;6.018;2023-11-19T05:53:58;10.80;99.90
74155;DHT22;62509;46.248;6.018;2023-11-19T05:59:01;10.80;99.90
74155;DHT22;62509;46.248;6.018;2023-11-19T06:04:10;10.80;99.90
74155;DHT22;62509;46.248;6.018;2023-11-19T06:09:13;10.80;99.90
74155;DHT22;62509;46.248;6.018;2023-11-19T06:14:16;10.80;99.90
74155;DHT22;62509;46.248;6.018;2023-11-19T06:19:21;10.70;99.90
74155;DHT22;62509;46.248;6.018;2023-11-19T06:24:29;10.70;99.90
74155;DHT22;62509;46.248;6.018;2023-11-19T06:29:32;10.60;99.90
74155;DHT22;62509;46.248;6.018;2023-11-19T06:34:37;10.60;99.90
74155;DHT22;62509;46.248;6.018;2023-11-19T06:39:40;10.70;99.90
74155;DHT22;62509;46.248;6.018;2023-11-19T06:44:43;10.90;99.90
74155;DHT22;62509;46.248;6.018;2023-11-19T06:49:48;10.80;99.90
74155;DHT22;62509;46.248;6.018;2023-11-19T06:54:51;10.80;99.90
74155;DHT22;62509;46.248;6.018;2023-11-19T07:00:09;11.00;99.90
74155;DHT22;62509;46.248;6.018;2023-11-19T07:05:14;11.30;99.90
74155;DHT22;62509;46.248;6.018;2023-11-19T07:10:17;11.40;99.90
74155;DHT22;62509;46.248;6.018;2023-11-19T07:15:21;11.40;99.90
74155;DHT22;62509;46.248;6.018;2023-11-19T07:20:25;11.50;99.90
74155;DHT22;62509;46.248;6.018;2023-11-19T07:25:29;11.50;99.90
74155;DHT22;62509;46.248;6.018;2023-11-19T07:30:32;11.50;99.90
74155;DHT22;62509;46.248;6.018;2023-11-19T07:35:37;11.60;99.90
74155;DHT22;62509;46.248;6.018;2023-11-19T07:40:40;11.60;99.90
74155;DHT22;62509;46.248;6.018;2023-11-19T07:45:57;11.80;99.90
74155;DHT22;62509;46.248;6.018;2023-11-19T07:51:02;12.10;99.90
74155;DHT22;62509;46.248;6.018;2023-11-19T07:56:06;12.20;99.90
74155;DHT22;62509;46.248;6.018;2023-11-19T08:01:09;12.30;99.90
74155;DHT22;62509;46.248;6.018;2023-11-19T08:06:14;12.30;99.90
74155;DHT22;62509;46.248;6.018;2023-11-19T08:11:17;12.40;99.90
74155;DHT22;62509;46.248;6.018;2023-11-19T08:16:21;12.30;99.90
74155;DHT22;62509;46.248;6.018;2023-11-19T08:21:26;12.30;99.90
74155;DHT22;62509;46.248;6.018;2023-11-19T08:26:29;12.30;99.90
74155;DHT22;62509;46.248;6.018;2023-11-19T08:31:33;12.20;99.90
74155;DHT22;62509;46.248;6.018;2023-11-19T08:36:37;12.20;99.90
74155;DHT22;62509;46.248;6.018;2023-11-19T08:41:40;12.20;99.90
74155;DHT22;62509;46.248;6.018;2023-11-19T08:46:46;12.10;99.90
74155;DHT22;62509;46.248;6.018;2023-11-19T08:51:51;12.20;99.90
74155;DHT22;62509;46.248;6.018;2023-11-19T08:56:54;12.10;99.90
74155;DHT22;62509;46.248;6.018;2023-11-19T09:01:57;12.10;99.90
74155;DHT22;62509;46.248;6.018;2023-11-19T09:07:02;12.10;99.90
74155;DHT22;62509;46.248;6.018;2023-11-19T09:12:06;12.00;99.90
74155;DHT22;62509;46.248;6.018;2023-11-19T09:17:09;11.90;99.90
74155;DHT22;62509;46.248;6.018;2023-11-19T09:22:14;11.90;99.90
74155;DHT22;62509;46.248;6.018;2023-11-19T09:27:17;11.90;99.90
74155;DHT22;62509;46.248;6.018;2023-11-19T09:32:22;11.90;99.90
74155;DHT22;62509;46.248;6.018;2023-11-19T09:37:26;11.90;99.90
74155;DHT22;62509;46.248;6.018;2023-11-19T09:42:30;11.80;99.90
74155;DHT22;62509;46.248;6.018;2023-11-19T09:47:34;11.80;99.90
74155;DHT22;62509;46.248;6.018;2023-11-19T09:52:38;11.90;99.90
74155;DHT22;62509;46.248;6.018;2023-11-19T09:57:42;11.90;99.90
74155;DHT22;62509;46.248;6.018;2023-11-19T10:02:46;12.00;99.90
74155;DHT22;62509;46.248;6.018;2023-11-19T10:07:51;11.90;99.90
74155;DHT22;62509;46.248;6.018;2023-11-19T10:12:54;11.90;99.90
74155;DHT22;62509;46.248;6.018;2023-11-19T10:17:58;11.80;99.90
74155;DHT22;62509;46.248;6.018;2023-11-19T10:23:03;11.80;99.90
74155;DHT22;62509;46.248;6.018;2023-11-19T10:28:06;11.80;99.90
74155;DHT22;62509;46.248;6.018;2023-11-19T10:33:10;11.90;99.90
74155;DHT22;62509;46.248;6.018;2023-11-19T10:38:19;11.90;99.90
74155;DHT22;62509;46.248;6.018;2023-11-19T10:43:22;12.00;99.90
74155;DHT22;62509;46.248;6.018;2023-11-19T10:48:26;12.00;99.90
74155;DHT22;62509;46.248;6.018;2023-11-19T10:53:31;12.10;99.90
74155;DHT22;62509;46.248;6.018;2023-11-19T10:58:38;12.10;99.90
74155;DHT22;62509;46.248;6.018;2023-11-19T11:03:46;12.10;99.90
74155;DHT22;62509;46.248;6.018;2023-11-19T11:08:54;12.10;99.90
74155;DHT22;62509;46.248;6.018;2023-11-19T11:13:58;12.20;99.90
74155;DHT22;62509;46.248;6.018;2023-11-19T11:19:02;12.00;99.90
74155;DHT22;62509;46.248;6.018;2023-11-19T11:24:13;11.90;99.90
74155;DHT22;62509;46.248;6.018;2023-11-19T11:29:24;12.00;99.90
74155;DHT22;62509;46.248;6.018;2023-11-19T11:34:40;11.90;99.90
74155;DHT22;62509;46.248;6.018;2023-11-19T11:39:52;12.00;99.90
74155;DHT22;62509;46.248;6.018;2023-11-19T11:44:59;12.10;99.90
74155;DHT22;62509;46.248;6.018;2023-11-19T11:50:06;12.10;99.90
74155;DHT22;62509;46.248;6.018;2023-11-19T11:55:15;12.10;99.90
74155;DHT22;62509;46.248;6.018;2023-11-19T12:00:21;12.20;99.90
74155;DHT22;62509;46.248;6.018;2023-11-19T12:05:25;12.40;99.90
74155;DHT22;62509;46.248;6.018;2023-11-19T12:10:31;12.50;99.90
74155;DHT22;62509;46.248;6.018;2023-11-19T12:15:39;12.70;99.90
74155;DHT22;62509;46.248;6.018;2023-11-19T12:21:11;12.80;99.90
74155;DHT22;62509;46.248;6.018;2023-11-19T12:31:43;12.70;99.90
74155;DHT22;62509;46.248;6.018;2023-11-19T12:36:47;12.80;99.90
74155;DHT22;62509;46.248;6.018;2023-11-19T12:41:52;12.90;99.90
74155;DHT22;62509;46.248;6.018;2023-11-19T12:47:03;12.90;99.90
74155;DHT22;62509;46.248;6.018;2023-11-19T12:52:11;12.80;99.90
74155;DHT22;62509;46.248;6.018;2023-11-19T12:57:16;12.70;99.90
74155;DHT22;62509;46.248;6.018;2023-11-19T13:02:20;12.70;99.90
74155;DHT22;62509;46.248;6.018;2023-11-19T13:07:23;12.70;99.90
74155;DHT22;62509;46.248;6.018;2023-11-19T13:12:28;12.80;99.90
74155;DHT22;62509;46.248;6.018;2023-11-19T13:17:31;12.80;99.90
74155;DHT22;62509;46.248;6.018;2023-11-19T13:22:34;12.90;99.90
74155;DHT22;62509;46.248;6.018;2023-11-19T13:27:39;12.80;99.90
74155;DHT22;62509;46.248;6.018;2023-11-19T13:32:42;12.80;99.90
74155;DHT22;62509;46.248;6.018;2023-11-19T13:37:46;12.80;99.90
74155;DHT22;62509;46.248;6.018;2023-11-19T13:42:51;12.80;99.90
74155;DHT22;62509;46.248;6.018;2023-11-19T13:47:54;12.80;99.90
74155;DHT22;62509;46.248;6.018;2023-11-19T13:52:57;12.90;99.90
74155;DHT22;62509;46.248;6.018;2023-11-19T13:58:01;12.80;99.90
74155;DHT22;62509;46.248;6.018;2023-11-19T14:03:04;12.80;99.90
74155;DHT22;62509;46.248;6.018;2023-11-19T14:08:08;12.80;99.90
74155;DHT22;62509;46.248;6.018;2023-11-19T14:13:27;12.80;99.90
74155;DHT22;62509;46.248;6.018;2023-11-19T14:18:32;12.70;99.90
74155;DHT22;62509;46.248;6.018;2023-11-19T14:23:36;12.70;99.90
74155;DHT22;62509;46.248;6.018;2023-11-19T14:28:41;12.70;99.90
74155;DHT22;62509;46.248;6.018;2023-11-19T14:33:47;12.80;99.90
74155;DHT22;62509;46.248;6.018;2023-11-19T14:38:51;12.70;99.90
74155;DHT22;62509;46.248;6.018;2023-11-19T14:43:55;12.60;99.90
74155;DHT22;62509;46.248;6.018;2023-11-19T14:48:58;12.60;99.90
74155;DHT22;62509;46.248;6.018;2023-11-19T14:54:02;12.60;99.90
74155;DHT22;62509;46.248;6.018;2023-11-19T14:59:07;12.50;99.90
74155;DHT22;62509;46.248;6.018;2023-11-19T15:04:10;12.50;99.90
74155;DHT22;62509;46.248;6.018;2023-11-19T15:09:13;12.40;99.90
74155;DHT22;62509;46.248;6.018;2023-11-19T15:14:20;12.40;99.90
74155;DHT22;62509;46.248;6.018;2023-11-19T15:19:23;12.30;99.90
74155;DHT22;62509;46.248;6.018;2023-11-19T15:24:26;12.30;99.90
74155;DHT22;62509;46.248;6.018;2023-11-19T15:29:31;12.20;99.90
74155;DHT22;62509;46.248;6.018;2023-11-19T15:34:36;12.20;99.90
74155;DHT22;62509;46.248;6.018;2023-11-19T15:39:39;12.10;99.90
74155;DHT22;62509;46.248;6.018;2023-11-19T15:44:44;12.10;99.90
74155;DHT22;62509;46.248;6.018;2023-11-19T15:49:47;12.10;99.90
74155;DHT22;62509;46.248;6.018;2023-11-19T15:54:51;12.10;99.90
74155;DHT22;62509;46.248;6.018;2023-11-19T15:59:55;12.10;99.90
74155;DHT22;62509;46.248;6.018;2023-11-19T16:04:58;12.10;99.90
74155;DHT22;62509;46.248;6.018;2023-11-19T16:10:02;12.10;99.90
74155;DHT22;62509;46.248;6.018;2023-11-19T16:15:08;12.20;99.90
74155;DHT22;62509;46.248;6.018;2023-11-19T16:20:11;12.20;99.90
74155;DHT22;62509;46.248;6.018;2023-11-19T16:25:15;12.20;99.90
74155;DHT22;62509;46.248;6.018;2023-11-19T16:30:20;12.30;99.90
74155;DHT22;62509;46.248;6.018;2023-11-19T16:35:24;12.30;99.90
74155;DHT22;62509;46.248;6.018;2023-11-19T16:40:27;12.30;99.90
74155;DHT22;62509;46.248;6.018;2023-11-19T16:45:32;12.30;99.90
74155;DHT22;62509;46.248;6.018;2023-11-19T16:50:35;12.20;99.90
74155;DHT22;62509;46.248;6.018;2023-11-19T16:55:39;12.40;99.90
74155;DHT22;62509;46.248;6.018;2023-11-19T17:00:43;12.40;99.90
74155;DHT22;62509;46.248;6.018;2023-11-19T17:05:46;12.40;99.90
74155;DHT22;62509;46.248;6.018;2023-11-19T17:10:49;12.30;99.90
74155;DHT22;62509;46.248;6.018;2023-11-19T17:15:54;12.30;99.90
74155;DHT22;62509;46.248;6.018;2023-11-19T17:20:57;12.20;99.90
74155;DHT22;62509;46.248;6.018;2023-11-19T17:26:02;12.00;99.90
74155;DHT22;62509;46.248;6.018;2023-11-19T17:31:08;12.00;99.90
74155;DHT22;62509;46.248;6.018;2023-11-19T17:36:12;12.00;99.90
74155;DHT22;62509;46.248;6.018;2023-11-19T17:41:15;11.90;99.90
74155;DHT22;62509;46.248;6.018;2023-11-19T17:46:19;11.80;99.90
74155;DHT22;62509;46.248;6.018;2023-11-19T17:51:23;11.70;99.90
74155;DHT22;62509;46.248;6.018;2023-11-19T17:56:26;11.50;99.90
74155;DHT22;62509;46.248;6.018;2023-11-19T18:01:31;11.50;99.90
74155;DHT22;62509;46.248;6.018;2023-11-19T18:06:34;11.40;99.90
74155;DHT22;62509;46.248;6.018;2023-11-19T18:11:39;11.30;99.90
74155;DHT22;62509;46.248;6.018;2023-11-19T18:16:43;11.30;99.90
74155;DHT22;62509;46.248;6.018;2023-11-19T18:21:46;11.30;99.90
74155;DHT22;62509;46.248;6.018;2023-11-19T18:26:50;11.10;99.90
74155;DHT22;62509;46.248;6.018;2023-11-19T18:31:55;11.00;99.90
74155;DHT22;62509;46.248;6.018;2023-11-19T18:36:58;10.80;99.90
74155;DHT22;62509;46.248;6.018;2023-11-19T18:42:01;10.90;99.90
74155;DHT22;62509;46.248;6.018;2023-11-19T18:47:06;10.90;99.90
74155;DHT22;62509;46.248;6.018;2023-11-19T18:52:09;10.70;99.90
74155;DHT22;62509;46.248;6.018;2023-11-19T18:57:12;10.50;99.90
74155;DHT22;62509;46.248;6.018;2023-11-19T19:02:17;10.40;99.90
74155;DHT22;62509;46.248;6.018;2023-11-19T19:07:20;10.20;99.90
74155;DHT22;62509;46.248;6.018;2023-11-19T19:12:25;10.20;99.90
74155;DHT22;62509;46.248;6.018;2023-11-19T19:17:31;10.20;99.90
74155;DHT22;62509;46.248;6.018;2023-11-19T19:22:34;10.40;99.90
74155;DHT22;62509;46.248;6.018;2023-11-19T19:27:37;10.60;99.90
74155;DHT22;62509;46.248;6.018;2023-11-19T19:32:42;10.80;99.90
74155;DHT22;62509;46.248;6.018;2023-11-19T19:37:46;10.80;99.90
74155;DHT22;62509;46.248;6.018;2023-11-19T19:42:49;10.60;99.90
74155;DHT22;62509;46.248;6.018;2023-11-19T19:47:54;10.70;99.90
74155;DHT22;62509;46.248;6.018;2023-11-19T19:52:58;10.80;99.90
74155;DHT22;62509;46.248;6.018;2023-11-19T19:58:01;10.60;99.90
74155;DHT22;62509;46.248;6.018;2023-11-19T20:03:07;10.50;99.90
74155;DHT22;62509;46.248;6.018;2023-11-19T20:08:10;10.30;99.90
74155;DHT22;62509;46.248;6.018;2023-11-19T20:13:13;9.80;99.90
74155;DHT22;62509;46.248;6.018;2023-11-19T20:18:18;9.70;99.90
74155;DHT22;62509;46.248;6.018;2023-11-19T20:23:22;9.70;99.90
74155;DHT22;62509;46.248;6.018;2023-11-19T20:28:25;9.70;99.90
74155;DHT22;62509;46.248;6.018;2023-11-19T20:33:29;9.50;99.90
74155;DHT22;62509;46.248;6.018;2023-11-19T20:38:33;9.50;99.90
74155;DHT22;62509;46.248;6.018;2023-11-19T20:43:37;9.40;99.90
74155;DHT22;62509;46.248;6.018;2023-11-19T20:48:42;9.40;99.90
74155;DHT22;62509;46.248;6.018;2023-11-19T20:53:45;9.50;99.90
74155;DHT22;62509;46.248;6.018;2023-11-19T20:58:48;9.30;99.90
74155;DHT22;62509;46.248;6.018;2023-11-19T21:03:53;9.50;99.90
74155;DHT22;62509;46.248;6.018;2023-11-19T21:08:57;9.50;99.90
74155;DHT22;62509;46.248;6.018;2023-11-19T21:14:00;9.60;99.90
74155;DHT22;62509;46.248;6.018;2023-11-19T21:19:06;9.10;99.90
74155;DHT22;62509;46.248;6.018;2023-11-19T21:24:10;9.10;99.90
74155;DHT22;62509;46.248;6.018;2023-11-19T21:29:13;9.00;99.90
74155;DHT22;62509;46.248;6.018;2023-11-19T21:34:18;9.00;99.90
74155;DHT22;62509;46.248;6.018;2023-11-19T21:39:21;9.00;99.90
74155;DHT22;62509;46.248;6.018;2023-11-19T21:44:24;8.70;99.90
74155;DHT22;62509;46.248;6.018;2023-11-19T21:49:29;8.50;99.90
74155;DHT22;62509;46.248;6.018;2023-11-19T21:54:32;8.50;99.90
74155;DHT22;62509;46.248;6.018;2023-11-19T21:59:39;8.40;99.90
74155;DHT22;62509;46.248;6.018;2023-11-19T22:04:44;8.50;99.90
74155;DHT22;62509;46.248;6.018;2023-11-19T22:09:47;8.40;99.90
74155;DHT22;62509;46.248;6.018;2023-11-19T22:14:50;8.30;99.90
74155;DHT22;62509;46.248;6.018;2023-11-19T22:19:54;8.20;99.90
74155;DHT22;62509;46.248;6.018;2023-11-19T22:24:58;8.30;99.90
74155;DHT22;62509;46.248;6.018;2023-11-19T22:30:01;8.20;99.90
74155;DHT22;62509;46.248;6.018;2023-11-19T22:35:06;8.20;99.90
74155;DHT22;62509;46.248;6.018;2023-11-19T22:40:10;8.20;99.90
74155;DHT22;62509;46.248;6.018;2023-11-19T22:45:14;8.20;99.90
74155;DHT22;62509;46.248;6.018;2023-11-19T22:50:19;8.20;99.90
74155;DHT22;62509;46.248;6.018;2023-11-19T22:55:23;8.10;99.90
74155;DHT22;62509;46.248;6.018;2023-11-19T23:00:26;8.00;99.90
74155;DHT22;62509;46.248;6.018;2023-11-19T23:05:32;8.00;99.90
74155;DHT22;62509;46.248;6.018;2023-11-19T23:10:37;8.10;99.90
74155;DHT22;62509;46.248;6.018;2023-11-19T23:15:40;7.80;99.90
74155;DHT22;62509;46.248;6.018;2023-11-19T23:20:46;8.00;99.90
74155;DHT22;62509;46.248;6.018;2023-11-19T23:25:49;7.90;99.90
74155;DHT22;62509;46.248;6.018;2023-11-19T23:30:52;8.20;99.90
74155;DHT22;62509;46.248;6.018;2023-11-19T23:35:57;8.20;99.90
74155;DHT22;62509;46.248;6.018;2023-11-19T23:41:00;8.30;99.90
74155;DHT22;62509;46.248;6.018;2023-11-19T23:46:03;8.50;99.90
74155;DHT22;62509;46.248;6.018;2023-11-19T23:51:08;8.40;99.90
74155;DHT22;62509;46.248;6.018;2023-11-19T23:56:11;8.30;99.90
